createdAt,value
2017-02-26T00:00:16.643Z,994.85
2017-02-26T00:01:16.671Z,994.87
2017-02-26T00:02:16.701Z,994.85
2017-02-26T00:03:16.726Z,994.86
2017-02-26T00:04:16.755Z,994.84
2017-02-26T00:05:16.776Z,994.83
2017-02-26T00:06:16.808Z,994.85
2017-02-26T00:07:16.833Z,994.84
2017-02-26T00:08:16.862Z,994.79
2017-02-26T00:09:16.885Z,994.75
2017-02-26T00:10:16.914Z,994.75
2017-02-26T00:11:16.935Z,994.72
2017-02-26T00:12:16.969Z,994.76
2017-02-26T00:13:16.993Z,994.77
2017-02-26T00:14:17.022Z,994.78
2017-02-26T00:15:17.046Z,994.84
2017-02-26T00:16:17.075Z,994.84
2017-02-26T00:17:17.099Z,994.86
2017-02-26T00:18:17.130Z,994.88
2017-02-26T00:19:17.153Z,994.93
2017-02-26T00:20:17.181Z,994.94
2017-02-26T00:21:17.203Z,994.92
2017-02-26T00:22:17.236Z,994.93
2017-02-26T00:23:17.260Z,994.89
2017-02-26T00:24:17.288Z,994.84
2017-02-26T00:25:17.313Z,994.77
2017-02-26T00:26:17.343Z,994.75
2017-02-26T00:27:17.364Z,994.81
2017-02-26T00:28:17.397Z,994.81
2017-02-26T00:29:17.420Z,994.83
2017-02-26T00:30:17.447Z,994.83
2017-02-26T00:31:17.474Z,994.86
2017-02-26T00:32:17.503Z,994.86
2017-02-26T00:33:17.526Z,994.87
2017-02-26T00:34:17.804Z,994.8
2017-02-26T00:35:17.581Z,994.82
2017-02-26T00:36:17.610Z,994.78
2017-02-26T00:37:17.634Z,994.77
2017-02-26T00:38:17.664Z,994.74
2017-02-26T00:39:17.939Z,994.74
2017-02-26T00:40:17.714Z,994.75
2017-02-26T00:41:17.742Z,994.72
2017-02-26T00:42:17.770Z,994.71
2017-02-26T00:43:17.794Z,994.72
2017-02-26T00:44:18.075Z,994.72
2017-02-26T00:45:17.848Z,994.72
2017-02-26T00:46:17.877Z,994.76
2017-02-26T00:47:17.902Z,994.75
2017-02-26T00:48:17.929Z,994.72
2017-02-26T00:49:18.206Z,994.78
2017-02-26T00:50:17.979Z,994.76
2017-02-26T00:51:18.006Z,994.8
2017-02-26T00:52:18.033Z,994.81
2017-02-26T00:53:18.062Z,994.76
2017-02-26T00:54:18.339Z,994.73
2017-02-26T00:55:18.116Z,994.76
2017-02-26T00:56:18.140Z,994.71
2017-02-26T00:57:18.169Z,994.73
2017-02-26T00:58:18.193Z,994.78
2017-02-26T00:59:18.223Z,994.77
2017-02-26T01:00:18.247Z,994.79
2017-02-26T01:01:18.275Z,994.77
2017-02-26T01:02:18.300Z,994.78
2017-02-26T01:03:18.321Z,994.75
2017-02-26T01:04:18.354Z,994.73
2017-02-26T01:05:18.381Z,994.71
2017-02-26T01:06:18.408Z,994.74
2017-02-26T01:07:18.432Z,994.68
2017-02-26T01:08:18.461Z,994.69
2017-02-26T01:09:18.485Z,994.7
2017-02-26T01:10:18.515Z,994.68
2017-02-26T01:11:18.540Z,994.69
2017-02-26T01:12:18.566Z,994.69
2017-02-26T01:13:18.592Z,994.64
2017-02-26T01:14:18.617Z,994.67
2017-02-26T01:15:18.646Z,994.71
2017-02-26T01:16:18.674Z,994.72
2017-02-26T01:17:18.696Z,994.74
2017-02-26T01:18:18.724Z,994.75
2017-02-26T01:19:18.753Z,994.74
2017-02-26T01:20:18.778Z,994.73
2017-02-26T01:21:18.807Z,994.77
2017-02-26T01:22:18.831Z,994.76
2017-02-26T01:23:18.859Z,994.76
2017-02-26T01:24:18.888Z,994.8
2017-02-26T01:25:18.909Z,994.77
2017-02-26T01:26:18.941Z,994.83
2017-02-26T01:27:18.963Z,994.8
2017-02-26T01:28:18.991Z,994.8
2017-02-26T01:29:19.013Z,994.74
2017-02-26T01:30:19.045Z,994.68
2017-02-26T01:31:19.069Z,994.7
2017-02-26T01:32:19.098Z,994.66
2017-02-26T01:33:19.122Z,994.62
2017-02-26T01:34:19.147Z,994.63
2017-02-26T01:35:19.176Z,994.58
2017-02-26T01:36:19.200Z,994.68
2017-02-26T01:37:19.229Z,994.65
2017-02-26T01:38:19.253Z,994.66
2017-02-26T01:39:19.283Z,994.69
2017-02-26T01:40:19.304Z,994.71
2017-02-26T01:41:19.368Z,994.69
2017-02-26T01:42:19.366Z,994.74
2017-02-26T01:43:19.385Z,994.76
2017-02-26T01:44:19.414Z,994.72
2017-02-26T01:45:19.435Z,994.7
2017-02-26T01:46:19.468Z,994.65
2017-02-26T01:47:19.492Z,994.68
2017-02-26T01:48:19.519Z,994.66
2017-02-26T01:49:19.546Z,994.61
2017-02-26T01:50:19.571Z,994.59
2017-02-26T01:51:19.599Z,994.61
2017-02-26T01:52:19.629Z,994.59
2017-02-26T01:53:19.651Z,994.56
2017-02-26T01:54:19.677Z,994.57
2017-02-26T01:55:19.701Z,994.53
2017-02-26T01:56:19.730Z,994.48
2017-02-26T01:57:19.755Z,994.56
2017-02-26T01:58:19.783Z,994.53
2017-02-26T01:59:19.810Z,994.52
2017-02-26T02:00:19.838Z,994.53
2017-02-26T02:01:19.862Z,994.52
2017-02-26T02:02:19.886Z,994.53
2017-02-26T02:03:19.916Z,994.54
2017-02-26T02:04:19.940Z,994.5
2017-02-26T02:05:19.965Z,994.49
2017-02-26T02:06:19.994Z,994.48
2017-02-26T02:07:20.019Z,994.43
2017-02-26T02:08:20.048Z,994.44
2017-02-26T02:09:20.072Z,994.43
2017-02-26T02:10:20.099Z,994.41
2017-02-26T02:11:20.125Z,994.4
2017-02-26T02:12:20.150Z,994.38
2017-02-26T02:13:20.178Z,994.46
2017-02-26T02:14:20.203Z,994.46
2017-02-26T02:15:20.229Z,994.45
2017-02-26T02:16:20.257Z,994.49
2017-02-26T02:17:20.282Z,994.53
2017-02-26T02:18:20.310Z,994.45
2017-02-26T02:19:20.335Z,994.47
2017-02-26T02:20:20.363Z,994.48
2017-02-26T02:21:20.389Z,994.49
2017-02-26T02:22:20.413Z,994.47
2017-02-26T02:23:20.443Z,994.44
2017-02-26T02:24:20.466Z,994.42
2017-02-26T02:25:20.743Z,994.37
2017-02-26T02:26:20.517Z,994.36
2017-02-26T02:27:20.540Z,994.38
2017-02-26T02:28:20.573Z,994.39
2017-02-26T02:29:20.600Z,994.42
2017-02-26T02:30:20.879Z,994.42
2017-02-26T02:31:20.650Z,994.37
2017-02-26T02:32:20.676Z,994.4
2017-02-26T02:33:20.701Z,994.4
2017-02-26T02:34:20.730Z,994.38
2017-02-26T02:35:21.001Z,994.41
2017-02-26T02:36:20.783Z,994.4
2017-02-26T02:37:20.808Z,994.4
2017-02-26T02:38:20.837Z,994.38
2017-02-26T02:39:20.866Z,994.34
2017-02-26T02:40:21.139Z,994.29
2017-02-26T02:41:20.915Z,994.3
2017-02-26T02:42:20.939Z,994.29
2017-02-26T02:43:20.968Z,994.29
2017-02-26T02:44:20.997Z,994.28
2017-02-26T02:45:21.268Z,994.26
2017-02-26T02:46:21.046Z,994.23
2017-02-26T02:47:21.069Z,994.17
2017-02-26T02:48:21.100Z,994.17
2017-02-26T02:49:21.124Z,994.15
2017-02-26T02:50:21.401Z,994.08
2017-02-26T02:51:21.177Z,994.13
2017-02-26T02:52:21.198Z,994.14
2017-02-26T02:53:21.227Z,994.17
2017-02-26T02:54:21.260Z,994.12
2017-02-26T02:55:21.534Z,994.03
2017-02-26T02:56:21.306Z,993.98
2017-02-26T02:57:21.334Z,993.96
2017-02-26T02:58:21.359Z,993.98
2017-02-26T02:59:21.387Z,993.95
2017-02-26T03:00:21.659Z,993.95
2017-02-26T03:01:21.437Z,993.9
2017-02-26T03:02:21.465Z,993.88
2017-02-26T03:03:21.490Z,993.89
2017-02-26T03:04:21.511Z,993.83
2017-02-26T03:05:21.796Z,993.87
2017-02-26T03:06:21.569Z,993.88
2017-02-26T03:07:21.598Z,993.92
2017-02-26T03:08:21.622Z,993.91
2017-02-26T03:09:21.645Z,993.89
2017-02-26T03:10:21.926Z,993.93
2017-02-26T03:11:21.700Z,993.99
2017-02-26T03:12:21.725Z,993.96
2017-02-26T03:13:21.754Z,994.01
2017-02-26T03:14:21.779Z,994.02
2017-02-26T03:15:22.049Z,994.05
2017-02-26T03:16:21.828Z,993.94
2017-02-26T03:17:21.857Z,993.93
2017-02-26T03:18:21.886Z,993.95
2017-02-26T03:19:21.910Z,993.93
2017-02-26T03:20:22.190Z,993.96
2017-02-26T03:21:21.959Z,993.88
2017-02-26T03:22:21.988Z,993.81
2017-02-26T03:23:22.017Z,993.79
2017-02-26T03:24:22.041Z,993.78
2017-02-26T03:25:22.318Z,993.83
2017-02-26T03:26:22.097Z,993.79
2017-02-26T03:27:22.119Z,993.77
2017-02-26T03:28:22.143Z,993.78
2017-02-26T03:29:22.172Z,993.73
2017-02-26T03:30:22.198Z,993.75
2017-02-26T03:31:22.223Z,993.74
2017-02-26T03:32:22.247Z,993.68
2017-02-26T03:33:22.276Z,993.7
2017-02-26T03:34:22.301Z,993.73
2017-02-26T03:35:22.330Z,993.75
2017-02-26T03:36:22.354Z,993.77
2017-02-26T03:37:22.378Z,993.77
2017-02-26T03:38:22.403Z,993.73
2017-02-26T03:39:22.447Z,993.75
2017-02-26T03:40:22.457Z,993.78
2017-02-26T03:41:22.485Z,993.72
2017-02-26T03:42:22.511Z,993.73
2017-02-26T03:43:22.539Z,993.74
2017-02-26T03:44:22.564Z,993.8
2017-02-26T03:45:22.588Z,993.81
2017-02-26T03:46:22.617Z,993.78
2017-02-26T03:47:22.641Z,993.79
2017-02-26T03:48:22.666Z,993.82
2017-02-26T03:49:22.694Z,993.77
2017-02-26T03:50:22.724Z,993.76
2017-02-26T03:51:22.744Z,993.77
2017-02-26T03:52:22.770Z,993.73
2017-02-26T03:53:22.797Z,993.77
2017-02-26T03:54:22.821Z,993.73
2017-02-26T03:55:22.852Z,993.75
2017-02-26T03:56:22.872Z,993.75
2017-02-26T03:57:22.900Z,993.72
2017-02-26T03:58:22.928Z,993.71
2017-02-26T03:59:22.955Z,993.71
2017-02-26T04:00:22.980Z,993.72
2017-02-26T04:01:23.011Z,993.68
2017-02-26T04:02:23.032Z,993.7
2017-02-26T04:03:23.058Z,993.68
2017-02-26T04:04:23.086Z,993.67
2017-02-26T04:05:23.111Z,993.68
2017-02-26T04:06:23.136Z,993.68
2017-02-26T04:07:23.164Z,993.66
2017-02-26T04:08:23.189Z,993.71
2017-02-26T04:09:23.218Z,993.67
2017-02-26T04:10:23.242Z,993.68
2017-02-26T04:11:23.268Z,993.71
2017-02-26T04:12:23.292Z,993.67
2017-02-26T04:13:23.320Z,993.69
2017-02-26T04:14:23.345Z,993.68
2017-02-26T04:15:23.370Z,993.7
2017-02-26T04:16:23.398Z,993.71
2017-02-26T04:17:23.423Z,993.64
2017-02-26T04:18:23.447Z,993.62
2017-02-26T04:19:23.475Z,993.62
2017-02-26T04:20:23.503Z,993.66
2017-02-26T04:21:23.527Z,993.63
2017-02-26T04:22:23.556Z,993.61
2017-02-26T04:23:23.579Z,993.58
2017-02-26T04:24:23.605Z,993.56
2017-02-26T04:25:23.633Z,993.57
2017-02-26T04:26:23.658Z,993.54
2017-02-26T04:27:23.683Z,993.52
2017-02-26T04:28:23.708Z,993.47
2017-02-26T04:29:23.736Z,993.51
2017-02-26T04:30:23.761Z,993.49
2017-02-26T04:31:24.041Z,993.5
2017-02-26T04:32:23.815Z,993.48
2017-02-26T04:33:23.840Z,993.46
2017-02-26T04:34:23.868Z,993.48
2017-02-26T04:35:23.893Z,993.46
2017-02-26T04:36:24.169Z,993.48
2017-02-26T04:37:23.944Z,993.48
2017-02-26T04:38:23.971Z,993.45
2017-02-26T04:39:23.996Z,993.52
2017-02-26T04:40:24.020Z,993.51
2017-02-26T04:41:24.301Z,993.52
2017-02-26T04:42:24.074Z,993.53
2017-02-26T04:43:24.099Z,993.61
2017-02-26T04:44:24.123Z,993.53
2017-02-26T04:45:24.153Z,993.54
2017-02-26T04:46:24.428Z,993.52
2017-02-26T04:47:24.206Z,993.57
2017-02-26T04:48:24.231Z,993.57
2017-02-26T04:49:24.255Z,993.53
2017-02-26T04:50:24.283Z,993.51
2017-02-26T04:51:24.308Z,993.48
2017-02-26T04:52:24.331Z,993.52
2017-02-26T04:53:24.363Z,993.53
2017-02-26T04:54:24.387Z,993.57
2017-02-26T04:55:24.411Z,993.59
2017-02-26T04:56:24.440Z,993.58
2017-02-26T04:57:24.465Z,993.53
2017-02-26T04:58:24.491Z,993.52
2017-02-26T04:59:24.518Z,993.55
2017-02-26T05:00:24.543Z,993.52
2017-02-26T05:01:24.568Z,993.47
2017-02-26T05:02:24.603Z,993.49
2017-02-26T05:03:24.622Z,993.49
2017-02-26T05:04:24.646Z,993.5
2017-02-26T05:05:24.671Z,993.48
2017-02-26T05:06:24.697Z,993.47
2017-02-26T05:07:24.725Z,993.49
2017-02-26T05:08:24.749Z,993.44
2017-02-26T05:09:24.777Z,993.42
2017-02-26T05:10:24.804Z,993.46
2017-02-26T05:11:24.827Z,993.43
2017-02-26T05:12:24.856Z,993.44
2017-02-26T05:13:24.880Z,993.42
2017-02-26T05:14:24.906Z,993.44
2017-02-26T05:15:24.930Z,993.43
2017-02-26T05:16:24.959Z,993.43
2017-02-26T05:17:24.983Z,993.46
2017-02-26T05:18:25.012Z,993.46
2017-02-26T05:19:25.036Z,993.47
2017-02-26T05:20:25.061Z,993.51
2017-02-26T05:21:25.091Z,993.53
2017-02-26T05:22:25.115Z,993.53
2017-02-26T05:23:25.140Z,993.59
2017-02-26T05:24:25.165Z,993.53
2017-02-26T05:25:25.189Z,993.52
2017-02-26T05:26:25.218Z,993.52
2017-02-26T05:27:25.244Z,993.5
2017-02-26T05:28:25.272Z,993.51
2017-02-26T05:29:25.296Z,993.51
2017-02-26T05:30:25.319Z,993.47
2017-02-26T05:31:25.350Z,993.43
2017-02-26T05:32:25.371Z,993.43
2017-02-26T05:33:25.398Z,993.47
2017-02-26T05:34:25.428Z,993.51
2017-02-26T05:35:25.451Z,993.52
2017-02-26T05:36:25.477Z,993.47
2017-02-26T05:37:25.506Z,993.49
2017-02-26T05:38:25.531Z,993.54
2017-02-26T05:39:25.560Z,993.54
2017-02-26T05:40:25.585Z,993.52
2017-02-26T05:41:25.608Z,993.5
2017-02-26T05:42:25.634Z,993.48
2017-02-26T05:43:25.662Z,993.46
2017-02-26T05:44:25.688Z,993.48
2017-02-26T05:45:25.712Z,993.52
2017-02-26T05:46:25.740Z,993.51
2017-02-26T05:47:25.763Z,993.54
2017-02-26T05:48:25.791Z,993.51
2017-02-26T05:49:25.819Z,993.46
2017-02-26T05:50:25.844Z,993.53
2017-02-26T05:51:25.865Z,993.51
2017-02-26T05:52:25.897Z,993.5
2017-02-26T05:53:25.919Z,993.46
2017-02-26T05:54:25.947Z,993.5
2017-02-26T05:55:25.976Z,993.47
2017-02-26T05:56:26.001Z,993.48
2017-02-26T05:57:26.024Z,993.48
2017-02-26T05:58:26.050Z,993.46
2017-02-26T05:59:26.081Z,993.49
2017-02-26T06:00:26.103Z,993.46
2017-02-26T06:01:26.132Z,993.46
2017-02-26T06:02:26.155Z,993.44
2017-02-26T06:03:26.181Z,993.35
2017-02-26T06:04:26.210Z,993.37
2017-02-26T06:05:26.235Z,993.38
2017-02-26T06:06:26.264Z,993.4
2017-02-26T06:07:26.540Z,993.39
2017-02-26T06:08:26.312Z,993.41
2017-02-26T06:09:26.336Z,993.37
2017-02-26T06:10:26.363Z,993.41
2017-02-26T06:11:26.395Z,993.42
2017-02-26T06:12:26.668Z,993.47
2017-02-26T06:13:26.444Z,993.49
2017-02-26T06:14:26.469Z,993.51
2017-02-26T06:15:26.499Z,993.52
2017-02-26T06:16:26.523Z,993.52
2017-02-26T06:17:26.799Z,993.54
2017-02-26T06:18:26.576Z,993.52
2017-02-26T06:19:26.601Z,993.56
2017-02-26T06:20:26.629Z,993.56
2017-02-26T06:21:26.655Z,993.55
2017-02-26T06:22:26.930Z,993.51
2017-02-26T06:23:26.703Z,993.55
2017-02-26T06:24:26.733Z,993.58
2017-02-26T06:25:26.756Z,993.58
2017-02-26T06:26:26.787Z,993.57
2017-02-26T06:27:27.059Z,993.56
2017-02-26T06:28:26.840Z,993.54
2017-02-26T06:29:26.865Z,993.53
2017-02-26T06:30:26.891Z,993.52
2017-02-26T06:31:26.918Z,993.53
2017-02-26T06:32:27.195Z,993.57
2017-02-26T06:33:26.972Z,993.53
2017-02-26T06:34:26.996Z,993.54
2017-02-26T06:35:27.025Z,993.57
2017-02-26T06:36:27.050Z,993.58
2017-02-26T06:37:27.330Z,993.57
2017-02-26T06:38:27.103Z,993.57
2017-02-26T06:39:27.126Z,993.55
2017-02-26T06:40:27.157Z,993.6
2017-02-26T06:41:27.181Z,993.54
2017-02-26T06:42:27.457Z,993.55
2017-02-26T06:43:27.234Z,993.65
2017-02-26T06:44:27.260Z,993.7
2017-02-26T06:45:27.288Z,993.73
2017-02-26T06:46:27.313Z,993.76
2017-02-26T06:47:27.340Z,993.79
2017-02-26T06:48:27.367Z,993.77
2017-02-26T06:49:27.392Z,993.75
2017-02-26T06:50:27.420Z,993.73
2017-02-26T06:51:27.444Z,993.72
2017-02-26T06:52:27.473Z,993.72
2017-02-26T06:53:27.498Z,993.83
2017-02-26T06:54:27.523Z,993.87
2017-02-26T06:55:27.552Z,993.92
2017-02-26T06:56:27.576Z,993.9
2017-02-26T06:57:27.602Z,993.87
2017-02-26T06:58:27.630Z,993.95
2017-02-26T06:59:27.650Z,993.92
2017-02-26T07:00:27.681Z,993.88
2017-02-26T07:01:27.708Z,993.89
2017-02-26T07:02:27.732Z,993.88
2017-02-26T07:03:27.762Z,993.95
2017-02-26T07:04:27.789Z,993.95
2017-02-26T07:05:27.814Z,993.97
2017-02-26T07:06:27.840Z,994.02
2017-02-26T07:07:27.868Z,994.02
2017-02-26T07:08:27.893Z,994.03
2017-02-26T07:09:27.922Z,994.02
2017-02-26T07:10:27.947Z,993.97
2017-02-26T07:11:27.975Z,993.97
2017-02-26T07:12:27.999Z,994.01
2017-02-26T07:13:28.025Z,993.99
2017-02-26T07:14:28.054Z,994.03
2017-02-26T07:15:28.082Z,994.04
2017-02-26T07:16:28.107Z,994.08
2017-02-26T07:17:28.128Z,994.08
2017-02-26T07:18:28.157Z,994.13
2017-02-26T07:19:28.195Z,994.06
2017-02-26T07:20:28.214Z,994.02
2017-02-26T07:21:28.239Z,994
2017-02-26T07:22:28.267Z,994.04
2017-02-26T07:23:28.293Z,994.04
2017-02-26T07:24:28.316Z,994.05
2017-02-26T07:25:28.346Z,993.98
2017-02-26T07:26:28.374Z,993.99
2017-02-26T07:27:28.396Z,994.04
2017-02-26T07:28:28.424Z,994.03
2017-02-26T07:29:28.453Z,994.02
2017-02-26T07:30:28.477Z,994.02
2017-02-26T07:31:28.506Z,993.99
2017-02-26T07:32:28.530Z,994
2017-02-26T07:33:28.562Z,993.98
2017-02-26T07:34:28.585Z,993.92
2017-02-26T07:35:28.613Z,993.87
2017-02-26T07:36:28.641Z,993.94
2017-02-26T07:37:28.662Z,993.93
2017-02-26T07:38:28.690Z,993.92
2017-02-26T07:39:28.716Z,993.89
2017-02-26T07:40:28.745Z,993.95
2017-02-26T07:41:28.773Z,993.95
2017-02-26T07:42:28.798Z,993.97
2017-02-26T07:43:28.823Z,994.03
2017-02-26T07:44:28.851Z,993.98
2017-02-26T07:45:28.880Z,993.96
2017-02-26T07:46:28.899Z,993.92
2017-02-26T07:47:28.929Z,993.97
2017-02-26T07:48:28.953Z,993.92
2017-02-26T07:49:28.982Z,993.9
2017-02-26T07:50:29.004Z,993.9
2017-02-26T07:51:29.037Z,993.88
2017-02-26T07:52:29.060Z,993.88
2017-02-26T07:53:29.090Z,993.86
2017-02-26T07:54:29.115Z,993.83
2017-02-26T07:55:29.144Z,993.87
2017-02-26T07:56:29.167Z,993.82
2017-02-26T07:57:29.196Z,993.81
2017-02-26T07:58:29.233Z,993.8
2017-02-26T07:59:29.243Z,993.79
2017-02-26T08:00:29.275Z,993.77
2017-02-26T08:01:29.300Z,993.72
2017-02-26T08:02:29.327Z,993.71
2017-02-26T08:03:29.360Z,993.69
2017-02-26T08:04:29.382Z,993.67
2017-02-26T08:05:29.410Z,993.69
2017-02-26T08:06:29.435Z,993.74
2017-02-26T08:07:29.460Z,993.77
2017-02-26T08:08:29.488Z,993.75
2017-02-26T08:09:29.517Z,993.79
2017-02-26T08:10:29.538Z,993.8
2017-02-26T08:11:29.564Z,993.84
2017-02-26T08:12:29.596Z,993.91
2017-02-26T08:13:29.872Z,993.92
2017-02-26T08:14:29.648Z,993.97
2017-02-26T08:15:29.674Z,993.96
2017-02-26T08:16:29.698Z,993.95
2017-02-26T08:17:29.728Z,993.97
2017-02-26T08:18:30.008Z,993.97
2017-02-26T08:19:29.780Z,993.93
2017-02-26T08:20:29.806Z,993.93
2017-02-26T08:21:29.834Z,993.96
2017-02-26T08:22:29.862Z,993.93
2017-02-26T08:23:30.139Z,994
2017-02-26T08:24:29.917Z,993.97
2017-02-26T08:25:29.936Z,994.06
2017-02-26T08:26:29.968Z,994
2017-02-26T08:27:29.996Z,994.02
2017-02-26T08:28:30.275Z,993.96
2017-02-26T08:29:30.049Z,993.97
2017-02-26T08:30:30.072Z,993.97
2017-02-26T08:31:30.102Z,994.06
2017-02-26T08:32:30.130Z,994.05
2017-02-26T08:33:30.406Z,994.02
2017-02-26T08:34:30.180Z,993.98
2017-02-26T08:35:30.208Z,994.02
2017-02-26T08:36:30.233Z,994.05
2017-02-26T08:37:30.262Z,994.03
2017-02-26T08:38:30.287Z,994.05
2017-02-26T08:39:30.315Z,994.05
2017-02-26T08:40:30.342Z,993.99
2017-02-26T08:41:30.368Z,993.99
2017-02-26T08:42:30.393Z,993.98
2017-02-26T08:43:30.422Z,994.06
2017-02-26T08:44:30.447Z,994.09
2017-02-26T08:45:30.476Z,994.06
2017-02-26T08:46:30.501Z,994
2017-02-26T08:47:30.530Z,993.99
2017-02-26T08:48:30.554Z,993.94
2017-02-26T08:49:30.583Z,993.99
2017-02-26T08:50:30.605Z,993.92
2017-02-26T08:51:30.637Z,993.99
2017-02-26T08:52:30.665Z,994
2017-02-26T08:53:30.690Z,993.97
2017-02-26T08:54:30.716Z,993.99
2017-02-26T08:55:30.744Z,994
2017-02-26T08:56:30.767Z,994.05
2017-02-26T08:57:30.799Z,994.06
2017-02-26T08:58:30.820Z,994.03
2017-02-26T08:59:30.850Z,994.01
2017-02-26T09:00:30.875Z,994
2017-02-26T09:01:30.904Z,993.95
2017-02-26T09:02:30.929Z,993.96
2017-02-26T09:03:30.954Z,993.99
2017-02-26T09:04:30.983Z,993.94
2017-02-26T09:05:31.011Z,993.96
2017-02-26T09:06:31.035Z,993.95
2017-02-26T09:07:31.065Z,993.9
2017-02-26T09:08:31.090Z,993.92
2017-02-26T09:09:31.117Z,993.89
2017-02-26T09:10:31.143Z,993.98
2017-02-26T09:11:31.173Z,993.99
2017-02-26T09:12:31.197Z,994.08
2017-02-26T09:13:31.218Z,994.13
2017-02-26T09:14:31.250Z,994.14
2017-02-26T09:15:31.279Z,994.16
2017-02-26T09:16:31.304Z,994.21
2017-02-26T09:17:31.329Z,994.24
2017-02-26T09:18:31.356Z,994.23
2017-02-26T09:19:31.382Z,994.21
2017-02-26T09:20:31.411Z,994.23
2017-02-26T09:21:31.440Z,994.19
2017-02-26T09:22:31.465Z,994.15
2017-02-26T09:23:31.493Z,994.1
2017-02-26T09:24:31.513Z,994.12
2017-02-26T09:25:31.547Z,994.13
2017-02-26T09:26:31.576Z,994.16
2017-02-26T09:27:31.599Z,994.17
2017-02-26T09:28:31.625Z,994.15
2017-02-26T09:29:31.649Z,994.19
2017-02-26T09:30:31.678Z,994.16
2017-02-26T09:31:31.707Z,994.18
2017-02-26T09:32:31.731Z,994.18
2017-02-26T09:33:31.761Z,994.19
2017-02-26T09:34:31.785Z,994.22
2017-02-26T09:35:31.853Z,994.19
2017-02-26T09:36:31.838Z,994.18
2017-02-26T09:37:31.868Z,994.15
2017-02-26T09:38:31.896Z,994.18
2017-02-26T09:39:31.921Z,994.18
2017-02-26T09:40:31.949Z,994.21
2017-02-26T09:41:31.974Z,994.22
2017-02-26T09:42:32.001Z,994.21
2017-02-26T09:43:32.028Z,994.24
2017-02-26T09:44:32.057Z,994.21
2017-02-26T09:45:32.081Z,994.27
2017-02-26T09:46:32.110Z,994.23
2017-02-26T09:47:32.135Z,994.28
2017-02-26T09:48:32.164Z,994.25
2017-02-26T09:49:32.440Z,994.28
2017-02-26T09:50:32.216Z,994.32
2017-02-26T09:51:32.242Z,994.29
2017-02-26T09:52:32.271Z,994.27
2017-02-26T09:53:32.293Z,994.26
2017-02-26T09:54:32.323Z,994.26
2017-02-26T09:55:32.349Z,994.27
2017-02-26T09:56:32.378Z,994.22
2017-02-26T09:57:32.402Z,994.23
2017-02-26T09:58:32.431Z,994.22
2017-02-26T09:59:32.456Z,994.22
2017-02-26T10:00:32.485Z,994.23
2017-02-26T10:01:32.510Z,994.2
2017-02-26T10:02:32.538Z,994.21
2017-02-26T10:03:32.567Z,994.18
2017-02-26T10:04:32.591Z,994.18
2017-02-26T10:05:32.620Z,994.19
2017-02-26T10:06:32.645Z,994.15
2017-02-26T10:07:32.675Z,994.13
2017-02-26T10:08:32.699Z,994.12
2017-02-26T10:09:32.727Z,994.14
2017-02-26T10:10:32.752Z,994.1
2017-02-26T10:11:32.779Z,994.1
2017-02-26T10:12:32.806Z,994.13
2017-02-26T10:13:32.835Z,994.03
2017-02-26T10:14:32.862Z,994.01
2017-02-26T10:15:32.886Z,994.03
2017-02-26T10:16:32.914Z,994
2017-02-26T10:17:32.941Z,994.01
2017-02-26T10:18:32.969Z,994.05
2017-02-26T10:19:32.995Z,994.08
2017-02-26T10:20:33.024Z,994.05
2017-02-26T10:21:33.052Z,993.98
2017-02-26T10:22:33.076Z,993.97
2017-02-26T10:23:33.106Z,993.98
2017-02-26T10:24:33.133Z,994.05
2017-02-26T10:25:33.159Z,994.08
2017-02-26T10:26:33.184Z,994.05
2017-02-26T10:27:33.213Z,993.99
2017-02-26T10:28:33.242Z,994.01
2017-02-26T10:29:33.273Z,993.99
2017-02-26T10:30:33.296Z,994
2017-02-26T10:31:33.323Z,994.1
2017-02-26T10:32:33.348Z,994.14
2017-02-26T10:33:33.377Z,994.07
2017-02-26T10:34:33.405Z,994.08
2017-02-26T10:35:33.426Z,994.09
2017-02-26T10:36:33.460Z,994.13
2017-02-26T10:37:33.484Z,994.07
2017-02-26T10:38:33.513Z,994.04
2017-02-26T10:39:33.544Z,993.95
2017-02-26T10:40:33.571Z,993.97
2017-02-26T10:41:33.594Z,993.91
2017-02-26T10:42:33.624Z,993.88
2017-02-26T10:43:33.653Z,993.88
2017-02-26T10:44:33.678Z,993.84
2017-02-26T10:45:33.706Z,993.8
2017-02-26T10:46:33.733Z,993.86
2017-02-26T10:47:33.758Z,993.88
2017-02-26T10:48:33.787Z,993.82
2017-02-26T10:49:33.817Z,993.85
2017-02-26T10:50:34.092Z,993.86
2017-02-26T10:51:33.869Z,993.79
2017-02-26T10:52:33.899Z,993.78
2017-02-26T10:53:33.923Z,993.81
2017-02-26T10:54:33.952Z,993.75
2017-02-26T10:55:34.232Z,993.8
2017-02-26T10:56:34.006Z,993.75
2017-02-26T10:57:34.034Z,993.76
2017-02-26T10:58:34.063Z,993.73
2017-02-26T10:59:34.088Z,993.79
2017-02-26T11:00:34.365Z,993.79
2017-02-26T11:01:34.145Z,993.81
2017-02-26T11:02:34.174Z,993.84
2017-02-26T11:03:34.199Z,993.79
2017-02-26T11:04:34.228Z,993.73
2017-02-26T11:05:34.504Z,993.75
2017-02-26T11:06:34.281Z,993.73
2017-02-26T11:07:34.310Z,993.71
2017-02-26T11:08:34.339Z,993.69
2017-02-26T11:09:34.368Z,993.61
2017-02-26T11:10:34.392Z,993.67
2017-02-26T11:11:34.418Z,993.64
2017-02-26T11:12:34.449Z,993.66
2017-02-26T11:13:34.478Z,993.64
2017-02-26T11:14:34.504Z,993.7
2017-02-26T11:15:34.532Z,993.62
2017-02-26T11:16:34.565Z,993.57
2017-02-26T11:17:34.586Z,993.56
2017-02-26T11:18:34.614Z,993.53
2017-02-26T11:19:34.643Z,993.56
2017-02-26T11:20:34.671Z,993.55
2017-02-26T11:21:34.696Z,993.56
2017-02-26T11:22:34.726Z,993.46
2017-02-26T11:23:34.751Z,993.44
2017-02-26T11:24:34.784Z,993.38
2017-02-26T11:25:34.807Z,993.38
2017-02-26T11:26:34.838Z,993.36
2017-02-26T11:27:34.866Z,993.31
2017-02-26T11:28:34.896Z,993.28
2017-02-26T11:29:34.923Z,993.28
2017-02-26T11:30:34.945Z,993.26
2017-02-26T11:31:34.976Z,993.28
2017-02-26T11:32:35.002Z,993.25
2017-02-26T11:33:35.034Z,993.23
2017-02-26T11:34:35.064Z,993.23
2017-02-26T11:35:35.084Z,993.18
2017-02-26T11:36:35.118Z,993.17
2017-02-26T11:37:35.147Z,993.17
2017-02-26T11:38:35.175Z,993.26
2017-02-26T11:39:35.203Z,993.17
2017-02-26T11:40:35.230Z,993.22
2017-02-26T11:41:35.256Z,993.18
2017-02-26T11:42:35.285Z,993.23
2017-02-26T11:43:35.314Z,993.22
2017-02-26T11:44:35.343Z,993.16
2017-02-26T11:45:35.371Z,993.18
2017-02-26T11:46:35.397Z,993.23
2017-02-26T11:47:35.425Z,993.24
2017-02-26T11:48:35.459Z,993.21
2017-02-26T11:49:35.483Z,993.25
2017-02-26T11:50:35.511Z,993.25
2017-02-26T11:51:35.541Z,993.26
2017-02-26T11:52:35.569Z,993.3
2017-02-26T11:53:35.598Z,993.31
2017-02-26T11:54:35.623Z,993.32
2017-02-26T11:55:35.651Z,993.35
2017-02-26T11:56:35.932Z,993.49
2017-02-26T11:57:35.709Z,993.51
2017-02-26T11:58:35.738Z,993.49
2017-02-26T11:59:35.763Z,993.55
2017-02-26T12:00:35.791Z,993.54
2017-02-26T12:01:36.072Z,993.55
2017-02-26T12:02:35.849Z,993.5
2017-02-26T12:03:35.877Z,993.52
2017-02-26T12:04:35.906Z,993.47
2017-02-26T12:05:35.933Z,993.49
2017-02-26T12:06:36.211Z,993.45
2017-02-26T12:07:35.988Z,993.4
2017-02-26T12:08:36.017Z,993.41
2017-02-26T12:09:36.044Z,993.4
2017-02-26T12:10:36.076Z,993.45
2017-02-26T12:11:36.351Z,993.38
2017-02-26T12:12:36.129Z,993.31
2017-02-26T12:13:36.160Z,993.31
2017-02-26T12:14:36.185Z,993.28
2017-02-26T12:15:36.214Z,993.23
2017-02-26T12:16:36.495Z,993.35
2017-02-26T12:17:36.271Z,993.27
2017-02-26T12:18:36.304Z,993.17
2017-02-26T12:19:36.333Z,993.1
2017-02-26T12:20:36.358Z,993
2017-02-26T12:21:36.387Z,992.97
2017-02-26T12:22:36.415Z,992.93
2017-02-26T12:23:36.444Z,992.83
2017-02-26T12:24:36.472Z,992.84
2017-02-26T12:25:36.502Z,992.78
2017-02-26T12:26:36.535Z,992.76
2017-02-26T12:27:36.563Z,992.76
2017-02-26T12:28:36.592Z,992.74
2017-02-26T12:29:36.619Z,992.69
2017-02-26T12:30:36.645Z,992.67
2017-02-26T12:31:36.678Z,992.6